AQQ10 IFIS: Internet Flight Information System
logo dgac
Miércoles 19 de Junio del 2024

Metar

Buscar por aerodromo o helipuerto
Ingrese nombre de aeródromo, localidad o designador OACI:


SPECI del 19-06-2024 a las 10:27 UTC
Para mayor información visite www.meteochile.gob.cl
SPECI SCVD 191027Z AUTO 17003KT 130V200 7000 FEW002 03/03 Q1018
Viento: dirección 170 grados, velocidad 3 nudos
Viento con dirección variable entre 130 y 200 grados
Visibilidad: 7000 metros
Nubes: Escasa nubosidad a 200 pies sobre el nivel del aeródromo
Temperatura: 3 °C
Rocío: 3 °C
Humedad_relativa: 100%
Presión: 1018 hPa
SPECI del 19-06-2024 a las 10:26 UTC
Para mayor información visite www.meteochile.gob.cl
SPECI SCJO 191026Z AUTO 02003KT 9999 FEW070/// 02/01 Q1016
Viento: dirección 020 grados, velocidad 3 nudos
Visibilidad: 10 km o más
Nubes: Escasa nubosidad a 7000 pies sobre el nivel del aeródromo, Tipo de nubes no disponible
Temperatura: 2 °C
Rocío: 1 °C
Humedad_relativa: 93%
Presión: 1016 hPa
SPECI del 19-06-2024 a las 10:26 UTC
Para mayor información visite www.meteochile.gob.cl
SPECI SAWG 191026Z 15009KT 9999 FEW014 BKN030 M03/M04 Q1023
Viento: dirección 150 grados, velocidad 9 nudos
Visibilidad: 10 km o más
Nubes: Escasa nubosidad a 1400 pies sobre el nivel del aeródromo
Nubes: Nublado a 3000 pies sobre el nivel del aeródromo
Temperatura: -3 °C
Rocío: -4 °C
Humedad_relativa: 93%
Presión: 1023 hPa
SPECI del 19-06-2024 a las 10:25 UTC
Para mayor información visite www.meteochile.gob.cl
SPECI SAZS 191025Z 27008KT 7000 -SN OVC022 00/M03 Q1011
Viento: dirección 270 grados, velocidad 8 nudos
Visibilidad: 7000 metros
Débil Nieve
Nubes: Cubierto a 2200 pies sobre el nivel del aeródromo
Temperatura: 0 °C
Rocío: -3 °C
Humedad_relativa: 80%
Presión: 1011 hPa
SPECI del 19-06-2024 a las 10:18 UTC
Para mayor información visite www.meteochile.gob.cl
SPECI SAEZ 191018Z 23011G25KT 5000 -RA SCT002 BKN009 OVC021 13/13 Q1011 NOSIG
Viento: dirección 230 grados, velocidad 11 nudos, con ráfagas de velocidad máxima de 25Nudos
Visibilidad: 5000 metros
Débil Lluvia
Nubes: Nubosidad parcial a 200 pies sobre el nivel del aeródromo
Nubes: Nublado a 900 pies sobre el nivel del aeródromo
Nubes: Cubierto a 2100 pies sobre el nivel del aeródromo
Temperatura: 13 °C
Rocío: 13 °C
Humedad_relativa: 100%
Presión: 1011 hPa
No se esperan cambios significativos en las próximas 2 horas
SPECI del 19-06-2024 a las 10:16 UTC
Para mayor información visite www.meteochile.gob.cl
SPECI SCJO 191016Z AUTO VRB02KT 2900 NCD 01/01 Q1016
Viento: dirección variable, velocidad 2 nudos
Visibilidad: 2900 metros
Temperatura: 1 °C
Rocío: 1 °C
Humedad_relativa: 100%
Presión: 1016 hPa
SPECI del 19-06-2024 a las 10:13 UTC
Para mayor información visite www.meteochile.gob.cl
SPECI SAWG 191013Z 12010KT 9999 SN BKN014 M03/M04 Q1023
Viento: dirección 120 grados, velocidad 10 nudos
Visibilidad: 10 km o más
Nieve
Nubes: Nublado a 1400 pies sobre el nivel del aeródromo
Temperatura: -3 °C
Rocío: -4 °C
Humedad_relativa: 93%
Presión: 1023 hPa
SPECI del 19-06-2024 a las 10:08 UTC
Para mayor información visite www.meteochile.gob.cl
SPECI SCVD 191008Z AUTO 11003KT 070V130 2100 BR FEW004 BKN036 02/02 Q1017 RESHRA
Viento: dirección 110 grados, velocidad 3 nudos
Viento con dirección variable entre 070 y 130 grados
Visibilidad: 2100 metros
Neblina
Nubes: Escasa nubosidad a 400 pies sobre el nivel del aeródromo
Nubes: Nublado a 3600 pies sobre el nivel del aeródromo
Temperatura: 2 °C
Rocío: 2 °C
Humedad_relativa: 100%
Presión: 1017 hPa
Se observó recientemente ChubascosLluvia
METAR del 19-06-2024 a las 10:00 UTC
Para mayor información visite www.meteochile.gob.cl
METAR SCPQ 191000Z AUTO 34006KT 9999 -SHRA FEW002 SCT026 BKN048 00/M00 Q1014
Viento: dirección 340 grados, velocidad 6 nudos
Visibilidad: 10 km o más
Débil ChubascosLluvia
Nubes: Escasa nubosidad a 200 pies sobre el nivel del aeródromo
Nubes: Nubosidad parcial a 2600 pies sobre el nivel del aeródromo
Nubes: Nublado a 4800 pies sobre el nivel del aeródromo
Temperatura: 0 °C
Rocío: -0 °C
Humedad_relativa: 100%
Presión: 1014 hPa
METAR del 19-06-2024 a las 10:00 UTC
Para mayor información visite www.meteochile.gob.cl
METAR SCIP 191000Z 14004KT 9999 BKN020 17/16 Q1025 NOSIG
Viento: dirección 140 grados, velocidad 4 nudos
Visibilidad: 10 km o más
Nubes: Nublado a 2000 pies sobre el nivel del aeródromo
Temperatura: 17 °C
Rocío: 16 °C
Humedad_relativa: 94%
Presión: 1025 hPa
No se esperan cambios significativos en las próximas 2 horas